Terminal Aerodrome Forecast
Issued by NWS

Home | Current Version | Previous Version | Text Only | Print | Product List | Glossary On
Versions: 1 2 3 4 5 6 7 8 9 10 11 12 13 14 15 16 17 18 19 20 21 22
000
FTUS41 KRNK 262351
TAFBCB
TAF
KBCB 262351Z 2700/2724 VRB04KT 3SM -SHRA SCT015 OVC025
     FM270100 VRB03KT 1SM BR OVC007
      TEMPO 2701/2703 1/4SM FG VV001
     FM270300 VRB04KT 4SM -SHRA BR BKN007 OVC013
     FM270700 28004KT 5SM BR OVC012
      TEMPO 2709/2713 1/4SM FG VV001
     FM271400 28006KT P6SM OVC015
     FM271600 29006KT P6SM OVC025
     FM271800 29007KT P6SM BKN035=

USA.gov is the U.S. government's official web portal to all federal, state and local government web resources and services.